sensor_id;sensor_type;location;lat;lon;timestamp;pressure;altitude;pressure_sealevel;temperature;humidity
10840;BME280;5473;42.706;23.328;2023-02-21T00:00:04;14901.44;;;-142.93;100.00
10840;BME280;5473;42.706;23.328;2023-02-21T00:02:48;14901.44;;;-142.93;100.00
10840;BME280;5473;42.706;23.328;2023-02-21T00:05:32;15154.44;;;-142.93;100.00
10840;BME280;5473;42.706;23.328;2023-02-21T00:08:16;14901.44;;;-142.93;100.00
10840;BME280;5473;42.706;23.328;2023-02-21T00:11:00;14901.44;;;-142.93;100.00
10840;BME280;5473;42.706;23.328;2023-02-21T00:13:44;14648.47;;;-142.93;100.00
10840;BME280;5473;42.706;23.328;2023-02-21T00:16:30;14648.47;;;-142.93;100.00
10840;BME280;5473;42.706;23.328;2023-02-21T00:19:14;14142.59;;;-142.93;100.00
10840;BME280;5473;42.706;23.328;2023-02-21T00:21:58;14901.44;;;-142.93;100.00
10840;BME280;5473;42.706;23.328;2023-02-21T00:24:42;15660.47;;;-142.93;100.00
10840;BME280;5473;42.706;23.328;2023-02-21T00:27:26;15154.44;;;-142.93;100.00
10840;BME280;5473;42.706;23.328;2023-02-21T00:30:11;15660.47;;;-142.93;100.00
10840;BME280;5473;42.706;23.328;2023-02-21T00:32:57;15660.47;;;-142.93;100.00
10840;BME280;5473;42.706;23.328;2023-02-21T00:35:41;15154.44;;;-142.93;100.00
10840;BME280;5473;42.706;23.328;2023-02-21T00:38:25;14901.44;;;-142.93;100.00
10840;BME280;5473;42.706;23.328;2023-02-21T00:41:09;14648.47;;;-142.93;100.00
10840;BME280;5473;42.706;23.328;2023-02-21T00:43:53;14901.44;;;-142.93;100.00
10840;BME280;5473;42.706;23.328;2023-02-21T00:46:37;14648.47;;;-142.93;100.00
10840;BME280;5473;42.706;23.328;2023-02-21T00:49:22;14901.44;;;-142.93;100.00
10840;BME280;5473;42.706;23.328;2023-02-21T00:52:07;14648.47;;;-142.93;100.00
10840;BME280;5473;42.706;23.328;2023-02-21T00:54:51;14648.47;;;-142.93;100.00
10840;BME280;5473;42.706;23.328;2023-02-21T00:57:35;14901.44;;;-142.93;100.00
10840;BME280;5473;42.706;23.328;2023-02-21T01:00:21;14901.44;;;-142.93;100.00
10840;BME280;5473;42.706;23.328;2023-02-21T01:03:06;14648.47;;;-142.93;100.00
10840;BME280;5473;42.706;23.328;2023-02-21T01:05:52;14395.53;;;-142.93;100.00
10840;BME280;5473;42.706;23.328;2023-02-21T01:08:40;14395.53;;;-142.93;100.00
10840;BME280;5473;42.706;23.328;2023-02-21T01:11:24;14395.53;;;-142.93;100.00
10840;BME280;5473;42.706;23.328;2023-02-21T01:14:08;14142.59;;;-142.93;100.00
10840;BME280;5473;42.706;23.328;2023-02-21T01:16:52;14901.44;;;-142.93;100.00
10840;BME280;5473;42.706;23.328;2023-02-21T01:19:36;14648.47;;;-142.93;100.00
10840;BME280;5473;42.706;23.328;2023-02-21T01:22:21;14648.47;;;-142.93;100.00
10840;BME280;5473;42.706;23.328;2023-02-21T01:25:06;14648.47;;;-142.93;100.00
10840;BME280;5473;42.706;23.328;2023-02-21T01:27:52;14395.53;;;-142.93;100.00
10840;BME280;5473;42.706;23.328;2023-02-21T01:30:36;14142.59;;;-142.93;100.00
10840;BME280;5473;42.706;23.328;2023-02-21T01:33:20;14648.47;;;-142.93;100.00
10840;BME280;5473;42.706;23.328;2023-02-21T01:36:05;14142.59;;;-142.93;100.00
10840;BME280;5473;42.706;23.328;2023-02-21T01:38:51;13889.69;;;-142.93;100.00
10840;BME280;5473;42.706;23.328;2023-02-21T01:41:35;14142.59;;;-142.93;100.00
10840;BME280;5473;42.706;23.328;2023-02-21T01:44:41;13636.81;;;-142.93;100.00
10840;BME280;5473;42.706;23.328;2023-02-21T01:47:25;13383.94;;;-142.93;100.00
10840;BME280;5473;42.706;23.328;2023-02-21T01:50:14;12625.44;;;-142.93;100.00
10840;BME280;5473;42.706;23.328;2023-02-21T01:53:00;12878.25;;;-142.93;100.00
10840;BME280;5473;42.706;23.328;2023-02-21T01:55:47;13131.09;;;-142.93;100.00
10840;BME280;5473;42.706;23.328;2023-02-21T01:58:31;13383.94;;;-142.93;100.00
10840;BME280;5473;42.706;23.328;2023-02-21T02:01:24;13131.09;;;-142.93;100.00
10840;BME280;5473;42.706;23.328;2023-02-21T02:04:12;13636.81;;;-142.93;100.00
10840;BME280;5473;42.706;23.328;2023-02-21T02:06:56;13636.81;;;-142.93;100.00
10840;BME280;5473;42.706;23.328;2023-02-21T02:09:41;13636.81;;;-142.93;100.00
10840;BME280;5473;42.706;23.328;2023-02-21T02:12:42;13889.69;;;-142.93;100.00
10840;BME280;5473;42.706;23.328;2023-02-21T02:15:31;13636.81;;;-142.93;100.00
10840;BME280;5473;42.706;23.328;2023-02-21T02:24:38;13636.81;;;-142.93;100.00
10840;BME280;5473;42.706;23.328;2023-02-21T02:27:20;13636.81;;;-142.93;100.00
10840;BME280;5473;42.706;23.328;2023-02-21T02:36:09;13383.94;;;-142.93;100.00
10840;BME280;5473;42.706;23.328;2023-02-21T02:38:50;13636.81;;;-142.93;100.00
10840;BME280;5473;42.706;23.328;2023-02-21T02:41:24;14142.59;;;-142.93;100.00
10840;BME280;5473;42.706;23.328;2023-02-21T02:43:56;14648.47;;;-142.93;100.00
10840;BME280;5473;42.706;23.328;2023-02-21T02:46:27;14395.53;;;-142.93;100.00
10840;BME280;5473;42.706;23.328;2023-02-21T02:48:59;13889.69;;;-142.93;100.00
10840;BME280;5473;42.706;23.328;2023-02-21T02:51:28;13636.81;;;-142.93;100.00
10840;BME280;5473;42.706;23.328;2023-02-21T02:53:58;13636.81;;;-142.93;100.00
10840;BME280;5473;42.706;23.328;2023-02-21T02:56:24;13383.94;;;-142.93;100.00
10840;BME280;5473;42.706;23.328;2023-02-21T02:58:55;13131.09;;;-142.93;100.00
10840;BME280;5473;42.706;23.328;2023-02-21T03:01:53;12372.66;;;-142.93;100.00
10840;BME280;5473;42.706;23.328;2023-02-21T03:04:40;12119.88;;;-142.93;100.00
10840;BME280;5473;42.706;23.328;2023-02-21T03:07:16;11867.13;;;-142.93;100.00
10840;BME280;5473;42.706;23.328;2023-02-21T03:09:52;11108.97;;;-142.93;100.00
10840;BME280;5473;42.706;23.328;2023-02-21T03:12:31;10856.28;;;-142.93;100.00
10840;BME280;5473;42.706;23.328;2023-02-21T03:15:03;11614.38;;;-142.93;100.00
10840;BME280;5473;42.706;23.328;2023-02-21T03:17:33;12119.88;;;-142.93;100.00
10840;BME280;5473;42.706;23.328;2023-02-21T03:20:04;12372.66;;;-142.93;100.00
10840;BME280;5473;42.706;23.328;2023-02-21T03:22:33;12372.66;;;-142.93;100.00
10840;BME280;5473;42.706;23.328;2023-02-21T03:25:02;12878.25;;;-142.93;100.00
10840;BME280;5473;42.706;23.328;2023-02-21T03:27:30;13383.94;;;-142.93;100.00
10840;BME280;5473;42.706;23.328;2023-02-21T03:30:01;13131.09;;;-142.93;100.00
10840;BME280;5473;42.706;23.328;2023-02-21T03:32:30;13383.94;;;-142.93;100.00
10840;BME280;5473;42.706;23.328;2023-02-21T03:34:57;13383.94;;;-142.93;100.00
10840;BME280;5473;42.706;23.328;2023-02-21T03:37:29;13383.94;;;-142.93;100.00
10840;BME280;5473;42.706;23.328;2023-02-21T03:39:59;12878.25;;;-142.93;100.00
10840;BME280;5473;42.706;23.328;2023-02-21T03:42:26;12625.44;;;-142.93;100.00
10840;BME280;5473;42.706;23.328;2023-02-21T03:44:53;12119.88;;;-142.93;100.00
10840;BME280;5473;42.706;23.328;2023-02-21T03:47:20;12119.88;;;-142.93;100.00
10840;BME280;5473;42.706;23.328;2023-02-21T03:49:47;12119.88;;;-142.93;100.00
10840;BME280;5473;42.706;23.328;2023-02-21T03:52:14;11614.38;;;-142.93;100.00
10840;BME280;5473;42.706;23.328;2023-02-21T03:54:40;11614.38;;;-142.93;100.00
10840;BME280;5473;42.706;23.328;2023-02-21T03:57:09;11361.66;;;-142.93;100.00
10840;BME280;5473;42.706;23.328;2023-02-21T03:59:36;11361.66;;;-142.93;100.00
10840;BME280;5473;42.706;23.328;2023-02-21T04:02:02;10351.00;;;-142.93;100.00
10840;BME280;5473;42.706;23.328;2023-02-21T04:04:29;9845.78;;;-142.93;100.00
10840;BME280;5473;42.706;23.328;2023-02-21T04:06:56;9088.09;;;-142.93;100.00
10840;BME280;5473;42.706;23.328;2023-02-21T04:09:23;8583.06;;;-142.93;100.00
10840;BME280;5473;42.706;23.328;2023-02-21T04:11:51;8583.06;;;-142.93;100.00
10840;BME280;5473;42.706;23.328;2023-02-21T04:14:19;8835.56;;;-142.93;100.00
10840;BME280;5473;42.706;23.328;2023-02-21T04:16:46;9088.09;;;-142.93;100.00
10840;BME280;5473;42.706;23.328;2023-02-21T04:19:13;8835.56;;;-142.93;100.00
10840;BME280;5473;42.706;23.328;2023-02-21T04:21:40;9088.09;;;-142.93;100.00
10840;BME280;5473;42.706;23.328;2023-02-21T04:24:07;9340.63;;;-142.93;100.00
10840;BME280;5473;42.706;23.328;2023-02-21T04:26:33;9340.63;;;-142.93;100.00
10840;BME280;5473;42.706;23.328;2023-02-21T04:29:00;9340.63;;;-142.93;100.00
10840;BME280;5473;42.706;23.328;2023-02-21T04:31:28;8835.56;;;-142.93;100.00
10840;BME280;5473;42.706;23.328;2023-02-21T04:33:56;8330.59;;;-142.93;100.00
10840;BME280;5473;42.706;23.328;2023-02-21T04:36:23;8078.13;;;-142.93;100.00
10840;BME280;5473;42.706;23.328;2023-02-21T04:38:50;7573.25;;;-142.93;100.00
10840;BME280;5473;42.706;23.328;2023-02-21T04:41:17;7320.84;;;-142.93;100.00
10840;BME280;5473;42.706;23.328;2023-02-21T04:43:44;7068.47;;;-142.93;100.00
10840;BME280;5473;42.706;23.328;2023-02-21T04:46:12;6311.41;;;-142.93;100.00
10840;BME280;5473;42.706;23.328;2023-02-21T04:48:41;5806.81;;;-142.93;100.00
10840;BME280;5473;42.706;23.328;2023-02-21T04:51:09;5050.06;;;-142.93;100.00
10840;BME280;5473;42.706;23.328;2023-02-21T04:53:35;4545.66;;;-142.93;100.00
10840;BME280;5473;42.706;23.328;2023-02-21T04:56:02;4797.84;;;-142.93;100.00
10840;BME280;5473;42.706;23.328;2023-02-21T04:58:29;4797.84;;;-142.93;100.00
10840;BME280;5473;42.706;23.328;2023-02-21T05:00:56;4797.84;;;-142.93;100.00
10840;BME280;5473;42.706;23.328;2023-02-21T05:03:23;4545.66;;;-142.93;100.00
10840;BME280;5473;42.706;23.328;2023-02-21T05:05:51;4545.66;;;-142.93;100.00
10840;BME280;5473;42.706;23.328;2023-02-21T05:08:18;4545.66;;;-142.93;100.00
10840;BME280;5473;42.706;23.328;2023-02-21T05:10:45;4545.66;;;-142.93;100.00
10840;BME280;5473;42.706;23.328;2023-02-21T05:13:12;4545.66;;;-142.93;100.00
10840;BME280;5473;42.706;23.328;2023-02-21T05:15:39;4797.84;;;-142.93;100.00
10840;BME280;5473;42.706;23.328;2023-02-21T05:18:06;4797.84;;;-142.93;100.00
10840;BME280;5473;42.706;23.328;2023-02-21T05:20:33;5050.06;;;-142.93;100.00
10840;BME280;5473;42.706;23.328;2023-02-21T05:23:01;5554.56;;;-142.93;100.00
10840;BME280;5473;42.706;23.328;2023-02-21T05:25:28;6059.09;;;-142.93;100.00
10840;BME280;5473;42.706;23.328;2023-02-21T05:27:55;6816.09;;;-142.93;100.00
10840;BME280;5473;42.706;23.328;2023-02-21T05:30:22;6816.09;;;-142.93;100.00
10840;BME280;5473;42.706;23.328;2023-02-21T05:32:49;7068.47;;;-142.93;100.00
10840;BME280;5473;42.706;23.328;2023-02-21T05:35:16;7573.25;;;-142.93;100.00
10840;BME280;5473;42.706;23.328;2023-02-21T05:37:43;8078.13;;;-142.93;100.00
10840;BME280;5473;42.706;23.328;2023-02-21T05:40:12;8583.06;;;-142.93;100.00
10840;BME280;5473;42.706;23.328;2023-02-21T05:42:41;9088.09;;;-142.93;100.00
10840;BME280;5473;42.706;23.328;2023-02-21T05:45:08;9340.63;;;-142.93;100.00
10840;BME280;5473;42.706;23.328;2023-02-21T05:47:35;8583.06;;;-142.93;100.00
10840;BME280;5473;42.706;23.328;2023-02-21T05:50:03;8583.06;;;-142.93;100.00
10840;BME280;5473;42.706;23.328;2023-02-21T05:52:30;9340.63;;;-142.93;100.00
10840;BME280;5473;42.706;23.328;2023-02-21T05:54:57;10351.00;;;-142.93;100.00
10840;BME280;5473;42.706;23.328;2023-02-21T05:57:25;18191.78;;;-142.93;100.00
10840;BME280;5473;42.706;23.328;2023-02-21T05:59:51;29832.94;;;-142.93;100.00
10840;BME280;5473;42.706;23.328;2023-02-21T06:02:18;35161.69;;;-142.93;100.00
10840;BME280;5473;42.706;23.328;2023-02-21T06:04:45;37284.03;;;-142.93;100.00
10840;BME280;5473;42.706;23.328;2023-02-21T06:07:11;37783.50;;;-142.93;100.00
10840;BME280;5473;42.706;23.328;2023-02-21T06:09:38;37902.88;;;-142.93;100.00
10840;BME280;5473;42.706;23.328;2023-02-21T06:12:05;37932.75;;;-142.93;100.00
10840;BME280;5473;42.706;23.328;2023-02-21T06:14:33;37865.06;;;-142.93;98.27
10840;BME280;5473;42.706;23.328;2023-02-21T06:17:00;37831.25;;;-142.93;93.75
10840;BME280;5473;42.706;23.328;2023-02-21T06:19:27;37813.34;;;-142.93;92.71
10840;BME280;5473;42.706;23.328;2023-02-21T06:21:54;37737.72;;;-142.93;87.59
10840;BME280;5473;42.706;23.328;2023-02-21T06:24:20;37741.69;;;-142.93;86.11
10840;BME280;5473;42.706;23.328;2023-02-21T06:26:47;37779.50;;;-142.93;85.30
10840;BME280;5473;42.706;23.328;2023-02-21T06:29:14;37777.50;;;-142.93;84.18
10840;BME280;5473;42.706;23.328;2023-02-21T06:31:42;37839.22;;;-142.93;88.06
10840;BME280;5473;42.706;23.328;2023-02-21T06:34:08;37865.06;;;-142.93;89.78
10840;BME280;5473;42.706;23.328;2023-02-21T06:36:35;37922.78;;;-142.93;91.37
10840;BME280;5473;42.706;23.328;2023-02-21T06:39:03;38002.41;;;-142.93;94.87
10840;BME280;5473;42.706;23.328;2023-02-21T06:41:31;38129.75;;;-142.93;99.51
10840;BME280;5473;42.706;23.328;2023-02-21T06:43:58;38139.72;;;-142.93;100.00
10840;BME280;5473;42.706;23.328;2023-02-21T06:46:27;38135.72;;;-142.93;100.00
10840;BME280;5473;42.706;23.328;2023-02-21T06:48:56;38155.63;;;-142.93;100.00
10840;BME280;5473;42.706;23.328;2023-02-21T06:51:23;38139.72;;;-142.93;100.00
10840;BME280;5473;42.706;23.328;2023-02-21T06:53:54;38117.81;;;-142.93;100.00
10840;BME280;5473;42.706;23.328;2023-02-21T06:56:21;38181.50;;;-142.93;100.00
10840;BME280;5473;42.706;23.328;2023-02-21T06:58:48;38141.72;;;-142.93;100.00
10840;BME280;5473;42.706;23.328;2023-02-21T07:01:15;38137.72;;;-142.93;100.00
10840;BME280;5473;42.706;23.328;2023-02-21T07:03:42;38105.88;;;-142.93;100.00
10840;BME280;5473;42.706;23.328;2023-02-21T07:06:11;38030.25;;;-142.93;98.44
10840;BME280;5473;42.706;23.328;2023-02-21T07:08:37;37845.19;;;-142.93;92.46
10840;BME280;5473;42.706;23.328;2023-02-21T07:11:04;37713.84;;;-142.93;85.39
10840;BME280;5473;42.706;23.328;2023-02-21T07:13:31;37678.03;;;-142.93;79.24
10840;BME280;5473;42.706;23.328;2023-02-21T07:15:59;37678.03;;;-142.93;78.16
10840;BME280;5473;42.706;23.328;2023-02-21T07:18:26;37674.03;;;-142.93;76.85
10840;BME280;5473;42.706;23.328;2023-02-21T07:20:53;37612.34;;;-142.93;74.15
10840;BME280;5473;42.706;23.328;2023-02-21T07:23:21;37646.19;;;-142.93;71.33
10840;BME280;5473;42.706;23.328;2023-02-21T07:25:48;37721.78;;;-142.93;72.36
10840;BME280;5473;42.706;23.328;2023-02-21T07:28:15;37763.59;;;-142.93;74.92
10840;BME280;5473;42.706;23.328;2023-02-21T07:30:42;37731.75;;;-142.93;75.72
10840;BME280;5473;42.706;23.328;2023-02-21T07:33:09;37729.75;;;-142.93;75.35
10840;BME280;5473;42.706;23.328;2023-02-21T07:35:35;37701.91;;;-142.93;73.98
10840;BME280;5473;42.706;23.328;2023-02-21T07:38:02;37668.06;;;-142.93;72.69
10840;BME280;5473;42.706;23.328;2023-02-21T07:40:30;37693.94;;;-142.93;71.49
10840;BME280;5473;42.706;23.328;2023-02-21T07:42:57;37719.81;;;-142.93;72.65
10840;BME280;5473;42.706;23.328;2023-02-21T07:45:24;37725.78;;;-142.93;72.54
10840;BME280;5473;42.706;23.328;2023-02-21T07:47:50;37715.81;;;-142.93;71.44
10840;BME280;5473;42.706;23.328;2023-02-21T07:50:18;37703.88;;;-142.93;70.20
10840;BME280;5473;42.706;23.328;2023-02-21T07:52:45;37685.97;;;-142.93;68.71
10840;BME280;5473;42.706;23.328;2023-02-21T07:55:11;37656.13;;;-142.93;66.73
10840;BME280;5473;42.706;23.328;2023-02-21T07:57:40;37707.88;;;-142.93;66.62
10840;BME280;5473;42.706;23.328;2023-02-21T08:00:08;37755.63;;;-142.93;67.72
10840;BME280;5473;42.706;23.328;2023-02-21T08:02:34;37761.59;;;-142.93;69.10
10840;BME280;5473;42.706;23.328;2023-02-21T08:05:01;37767.56;;;-142.93;71.02
10840;BME280;5473;42.706;23.328;2023-02-21T08:07:29;37795.44;;;-142.93;72.56
10840;BME280;5473;42.706;23.328;2023-02-21T08:09:56;37779.50;;;-142.93;75.29
10840;BME280;5473;42.706;23.328;2023-02-21T08:12:23;37801.41;;;-142.93;76.76
10840;BME280;5473;42.706;23.328;2023-02-21T08:14:51;37791.44;;;-142.93;78.15
10840;BME280;5473;42.706;23.328;2023-02-21T08:17:18;37807.38;;;-142.93;79.48
10840;BME280;5473;42.706;23.328;2023-02-21T08:19:45;37807.38;;;-142.93;79.84
10840;BME280;5473;42.706;23.328;2023-02-21T08:22:11;37823.28;;;-142.93;79.90
10840;BME280;5473;42.706;23.328;2023-02-21T08:24:41;37805.38;;;-142.93;80.71
10840;BME280;5473;42.706;23.328;2023-02-21T08:27:09;37803.38;;;-142.93;80.54
10840;BME280;5473;42.706;23.328;2023-02-21T08:29:36;37795.44;;;-142.93;80.81
10840;BME280;5473;42.706;23.328;2023-02-21T08:32:06;37805.38;;;-142.93;80.78
10840;BME280;5473;42.706;23.328;2023-02-21T08:34:33;37823.28;;;-142.93;81.13
10840;BME280;5473;42.706;23.328;2023-02-21T08:37:00;37845.19;;;-142.93;81.94
10840;BME280;5473;42.706;23.328;2023-02-21T08:39:31;37833.25;;;-142.93;82.86
10840;BME280;5473;42.706;23.328;2023-02-21T08:41:57;37815.31;;;-142.93;82.03
10840;BME280;5473;42.706;23.328;2023-02-21T08:44:24;37793.44;;;-142.93;80.91
10840;BME280;5473;42.706;23.328;2023-02-21T08:46:51;37769.56;;;-142.93;78.23
10840;BME280;5473;42.706;23.328;2023-02-21T08:49:19;37737.72;;;-142.93;75.26
10840;BME280;5473;42.706;23.328;2023-02-21T08:51:46;37701.91;;;-142.93;72.15
10840;BME280;5473;42.706;23.328;2023-02-21T08:54:12;37693.94;;;-142.93;70.72
10840;BME280;5473;42.706;23.328;2023-02-21T08:56:39;37743.69;;;-142.93;70.13
10840;BME280;5473;42.706;23.328;2023-02-21T08:59:06;37743.69;;;-142.93;68.99
10840;BME280;5473;42.706;23.328;2023-02-21T09:01:36;37733.75;;;-142.93;69.28
10840;BME280;5473;42.706;23.328;2023-02-21T09:04:03;37751.66;;;-142.93;69.81
10840;BME280;5473;42.706;23.328;2023-02-21T09:06:32;37735.72;;;-142.93;70.22
10840;BME280;5473;42.706;23.328;2023-02-21T09:08:58;37737.72;;;-142.93;70.41
10840;BME280;5473;42.706;23.328;2023-02-21T09:11:25;37727.75;;;-142.93;70.06
10840;BME280;5473;42.706;23.328;2023-02-21T09:13:52;37721.78;;;-142.93;67.59
10840;BME280;5473;42.706;23.328;2023-02-21T09:16:19;37660.09;;;-142.93;64.62
10840;BME280;5473;42.706;23.328;2023-02-21T09:18:53;37634.25;;;-142.93;62.21
10840;BME280;5473;42.706;23.328;2023-02-21T09:21:20;37590.47;;;-142.93;55.93
10840;BME280;5473;42.706;23.328;2023-02-21T09:23:51;37628.28;;;-142.93;54.75
10840;BME280;5473;42.706;23.328;2023-02-21T09:26:18;37576.53;;;-142.93;52.77
10840;BME280;5473;42.706;23.328;2023-02-21T09:28:46;37564.59;;;-142.93;51.22
10840;BME280;5473;42.706;23.328;2023-02-21T09:31:13;37592.44;;;-142.93;49.57
10840;BME280;5473;42.706;23.328;2023-02-21T09:33:40;37584.50;;;-142.93;48.42
10840;BME280;5473;42.706;23.328;2023-02-21T09:36:07;37558.63;;;-142.93;49.20
10840;BME280;5473;42.706;23.328;2023-02-21T09:38:34;37526.78;;;-142.93;46.42
10840;BME280;5473;42.706;23.328;2023-02-21T09:41:04;37562.59;;;-142.93;45.97
10840;BME280;5473;42.706;23.328;2023-02-21T09:43:33;37512.84;;;-142.93;44.74
10840;BME280;5473;42.706;23.328;2023-02-21T09:46:04;37508.88;;;-142.93;43.87
10840;BME280;5473;42.706;23.328;2023-02-21T09:48:32;37506.88;;;-142.93;42.70
10840;BME280;5473;42.706;23.328;2023-02-21T09:51:02;37435.25;;;-142.93;41.42
10840;BME280;5473;42.706;23.328;2023-02-21T09:53:31;37284.03;;;-142.93;37.58
10840;BME280;5473;42.706;23.328;2023-02-21T09:56:03;37051.25;;;-142.93;34.39
10840;BME280;5473;42.706;23.328;2023-02-21T09:58:31;37097.00;;;-142.93;33.34
10840;BME280;5473;42.706;23.328;2023-02-21T10:01:02;37089.03;;;-142.93;33.08
10840;BME280;5473;42.706;23.328;2023-02-21T10:03:41;37122.88;;;-142.93;33.13
10840;BME280;5473;42.706;23.328;2023-02-21T10:06:19;37170.63;;;-142.93;33.36
10840;BME280;5473;42.706;23.328;2023-02-21T10:08:52;37176.59;;;-142.93;33.24
10840;BME280;5473;42.706;23.328;2023-02-21T10:11:30;37349.69;;;-142.93;34.45
10840;BME280;5473;42.706;23.328;2023-02-21T10:14:08;37361.63;;;-142.93;34.82
10840;BME280;5473;42.706;23.328;2023-02-21T10:16:41;37228.31;;;-142.93;34.18
10840;BME280;5473;42.706;23.328;2023-02-21T10:19:15;37170.63;;;-142.93;32.88
10840;BME280;5473;42.706;23.328;2023-02-21T10:21:47;37288.00;;;-142.93;33.15
10840;BME280;5473;42.706;23.328;2023-02-21T10:24:15;37184.56;;;-142.93;32.45
10840;BME280;5473;42.706;23.328;2023-02-21T10:26:48;36955.75;;;-142.93;30.72
10840;BME280;5473;42.706;23.328;2023-02-21T10:29:21;36935.84;;;-142.93;30.25
10840;BME280;5473;42.706;23.328;2023-02-21T10:31:51;36766.75;;;-142.93;29.30
10840;BME280;5473;42.706;23.328;2023-02-21T10:34:23;36671.25;;;-142.93;28.01
10840;BME280;5473;42.706;23.328;2023-02-21T10:36:53;36701.09;;;-142.93;26.16
10840;BME280;5473;42.706;23.328;2023-02-21T10:39:24;36719.00;;;-142.93;25.31
10840;BME280;5473;42.706;23.328;2023-02-21T10:41:54;37075.13;;;-142.93;25.82
10840;BME280;5473;42.706;23.328;2023-02-21T10:44:25;37035.31;;;-142.93;25.61
10840;BME280;5473;42.706;23.328;2023-02-21T10:46:59;36943.81;;;-142.93;25.18
10840;BME280;5473;42.706;23.328;2023-02-21T10:49:30;37138.78;;;-142.93;25.12
10840;BME280;5473;42.706;23.328;2023-02-21T10:52:09;37116.91;;;-142.93;25.35
10840;BME280;5473;42.706;23.328;2023-02-21T10:54:36;37214.41;;;-142.93;25.77
10840;BME280;5473;42.706;23.328;2023-02-21T10:57:07;37218.38;;;-142.93;25.75
10840;BME280;5473;42.706;23.328;2023-02-21T10:59:38;37208.44;;;-142.93;25.59
10840;BME280;5473;42.706;23.328;2023-02-21T11:02:25;37035.31;;;-142.93;25.54
10840;BME280;5473;42.706;23.328;2023-02-21T11:04:54;37013.44;;;-142.93;25.55
10840;BME280;5473;42.706;23.328;2023-02-21T11:07:22;37013.44;;;-142.93;25.61
10840;BME280;5473;42.706;23.328;2023-02-21T11:09:49;37077.09;;;-142.93;25.85
10840;BME280;5473;42.706;23.328;2023-02-21T11:12:23;37124.84;;;-142.93;25.81
10840;BME280;5473;42.706;23.328;2023-02-21T11:15:17;37063.19;;;-142.93;25.75
10840;BME280;5473;42.706;23.328;2023-02-21T11:17:44;36983.59;;;-142.93;25.56
10840;BME280;5473;42.706;23.328;2023-02-21T11:20:17;36975.66;;;-142.93;25.15
10840;BME280;5473;42.706;23.328;2023-02-21T11:22:50;37164.66;;;-142.93;25.63
10840;BME280;5473;42.706;23.328;2023-02-21T11:25:21;37023.38;;;-142.93;25.27
10840;BME280;5473;42.706;23.328;2023-02-21T11:28:01;37063.19;;;-142.93;25.32
10840;BME280;5473;42.706;23.328;2023-02-21T11:30:31;37190.53;;;-142.93;25.56
10840;BME280;5473;42.706;23.328;2023-02-21T11:32:59;37085.06;;;-142.93;25.42
10840;BME280;5473;42.706;23.328;2023-02-21T11:35:29;37067.16;;;-142.93;25.60
10840;BME280;5473;42.706;23.328;2023-02-21T11:37:59;36874.19;;;-142.93;25.18
10840;BME280;5473;42.706;23.328;2023-02-21T11:40:31;36906.00;;;-142.93;24.95
10840;BME280;5473;42.706;23.328;2023-02-21T11:43:17;36913.97;;;-142.93;24.99
10840;BME280;5473;42.706;23.328;2023-02-21T11:48:33;36977.63;;;-142.93;24.92
10840;BME280;5473;42.706;23.328;2023-02-21T11:51:05;36997.53;;;-142.93;25.34
10840;BME280;5473;42.706;23.328;2023-02-21T11:53:38;36915.97;;;-142.93;25.26
10840;BME280;5473;42.706;23.328;2023-02-21T11:56:17;36915.97;;;-142.93;25.14
10840;BME280;5473;42.706;23.328;2023-02-21T11:58:54;36951.78;;;-142.93;25.09
10840;BME280;5473;42.706;23.328;2023-02-21T12:01:27;37005.47;;;-142.93;25.26
10840;BME280;5473;42.706;23.328;2023-02-21T12:04:29;36886.13;;;-142.93;25.72
10840;BME280;5473;42.706;23.328;2023-02-21T12:07:09;37095.00;;;-142.93;25.75
10840;BME280;5473;42.706;23.328;2023-02-21T12:09:44;37110.94;;;-142.93;26.14
10840;BME280;5473;42.706;23.328;2023-02-21T12:12:30;37019.41;;;-142.93;25.85
10840;BME280;5473;42.706;23.328;2023-02-21T12:15:07;37023.38;;;-142.93;26.10
10840;BME280;5473;42.706;23.328;2023-02-21T12:17:53;37130.81;;;-142.93;26.46
10840;BME280;5473;42.706;23.328;2023-02-21T12:20:46;37162.66;;;-142.93;26.41
10840;BME280;5473;42.706;23.328;2023-02-21T12:23:21;37218.38;;;-142.93;26.70
10840;BME280;5473;42.706;23.328;2023-02-21T12:26:02;37345.72;;;-142.93;27.24
10840;BME280;5473;42.706;23.328;2023-02-21T12:28:46;37307.91;;;-142.93;27.11
10840;BME280;5473;42.706;23.328;2023-02-21T12:31:32;37284.03;;;-142.93;27.00
10840;BME280;5473;42.706;23.328;2023-02-21T12:34:13;37290.00;;;-142.93;27.20
10840;BME280;5473;42.706;23.328;2023-02-21T12:37:15;37337.75;;;-142.93;27.21
10840;BME280;5473;42.706;23.328;2023-02-21T12:40:07;37272.09;;;-142.93;27.18
10840;BME280;5473;42.706;23.328;2023-02-21T12:42:48;37198.47;;;-142.93;27.23
10840;BME280;5473;42.706;23.328;2023-02-21T12:45:33;37216.38;;;-142.93;26.85
10840;BME280;5473;42.706;23.328;2023-02-21T12:48:11;37297.97;;;-142.93;27.22
10840;BME280;5473;42.706;23.328;2023-02-21T12:50:45;37423.31;;;-142.93;27.64
10840;BME280;5473;42.706;23.328;2023-02-21T12:53:18;37429.28;;;-142.93;27.80
10840;BME280;5473;42.706;23.328;2023-02-21T12:55:49;37483.00;;;-142.93;28.12
10840;BME280;5473;42.706;23.328;2023-02-21T12:58:20;37475.06;;;-142.93;28.16
10840;BME280;5473;42.706;23.328;2023-02-21T13:00:53;37397.44;;;-142.93;28.21
10840;BME280;5473;42.706;23.328;2023-02-21T13:03:32;37419.34;;;-142.93;28.13
10840;BME280;5473;42.706;23.328;2023-02-21T13:06:08;37401.44;;;-142.93;28.02
10840;BME280;5473;42.706;23.328;2023-02-21T13:08:42;37461.13;;;-142.93;28.16
10840;BME280;5473;42.706;23.328;2023-02-21T13:11:14;37463.13;;;-142.93;28.19
10840;BME280;5473;42.706;23.328;2023-02-21T13:13:44;37443.22;;;-142.93;27.92
10840;BME280;5473;42.706;23.328;2023-02-21T13:16:12;37475.06;;;-142.93;28.26
10840;BME280;5473;42.706;23.328;2023-02-21T13:18:44;37481.03;;;-142.93;28.47